Time;durP1;ratioP1;P1;durP2;ratioP2;P2;SDS_P1;SDS_P2;PMS_P1;PMS_P2;Temp;Humidity;BMP_temperature;BMP_pressure;BME280_temperature;BME280_humidity;BME280_pressure;Samples;Min_cycle;Max_cycle;Signal;HPM_P1;HPM_P2
2023/01/05 00:02:16;;;;;;;0.50;0.50;;;11.40;99.90;;;;;;4991800;28;20832;-73
2023/01/05 00:04:41;;;;;;;0.80;0.50;;;11.40;99.90;;;;;;4990597;28;20418;-73
2023/01/05 00:07:07;;;;;;;1.05;0.40;;;11.40;99.90;;;;;;4991388;28;20394;-74
2023/01/05 00:09:32;;;;;;;0.50;0.40;;;11.40;99.90;;;;;;4990932;28;20746;-73
2023/01/05 00:22:59;;;;;;;1.20;0.40;;;11.60;99.90;;;;;;4990734;28;20389;-73
2023/01/05 00:25:30;;;;;;;0.50;0.30;;;11.50;99.90;;;;;;4990763;28;20481;-73
2023/01/05 00:27:57;;;;;;;0.60;0.43;;;11.50;99.90;;;;;;4990800;28;20418;-73
2023/01/05 00:30:27;;;;;;;0.50;0.40;;;11.60;99.90;;;;;;4990894;28;20764;-73
2023/01/05 00:32:52;;;;;;;0.60;0.40;;;11.60;99.90;;;;;;4990168;28;20397;-73
2023/01/05 00:35:18;;;;;;;0.53;0.30;;;11.60;99.90;;;;;;4990878;28;20800;-73
2023/01/05 00:37:44;;;;;;;0.40;0.30;;;11.60;99.90;;;;;;4991175;28;20556;-73
2023/01/05 00:40:12;;;;;;;0.70;0.30;;;11.70;99.90;;;;;;4990978;28;20411;-73
2023/01/05 00:42:38;;;;;;;0.40;0.40;;;11.60;99.90;;;;;;4989867;28;20406;-73
2023/01/05 00:45:06;;;;;;;0.60;0.30;;;11.60;99.90;;;;;;4990744;28;20469;-73
2023/01/05 00:47:31;;;;;;;1.20;0.50;;;11.70;99.90;;;;;;4990698;28;20394;-73
2023/01/05 00:49:57;;;;;;;0.40;0.30;;;11.70;99.90;;;;;;4990803;28;20449;-72
2023/01/05 00:52:22;;;;;;;0.40;0.30;;;11.70;99.90;;;;;;4990754;28;20399;-72
2023/01/05 00:54:49;;;;;;;0.70;0.40;;;11.70;99.90;;;;;;4990301;28;20394;-73
2023/01/05 00:57:14;;;;;;;0.60;0.40;;;11.70;99.90;;;;;;4990815;28;20469;-73
2023/01/05 00:59:40;;;;;;;0.60;0.40;;;11.60;99.90;;;;;;4991015;28;20967;-73
2023/01/05 01:02:06;;;;;;;0.80;0.40;;;11.60;99.90;;;;;;4990911;28;20469;-73
2023/01/05 01:04:32;;;;;;;0.50;0.30;;;11.50;99.90;;;;;;4989603;28;20449;-73
2023/01/05 01:06:58;;;;;;;0.40;0.20;;;11.50;99.90;;;;;;4990730;28;20390;-73
2023/01/05 01:09:24;;;;;;;0.50;0.30;;;11.50;99.90;;;;;;4977990;28;20461;-73
2023/01/05 01:11:50;;;;;;;0.60;0.40;;;11.40;99.90;;;;;;4990663;28;20757;-74
2023/01/05 01:14:15;;;;;;;0.57;0.37;;;11.20;99.90;;;;;;4989881;28;20946;-74
2023/01/05 01:16:41;;;;;;;0.50;0.50;;;10.90;99.90;;;;;;4973347;28;20877;-74
2023/01/05 01:19:12;;;;;;;1.00;0.47;;;10.80;99.90;;;;;;4990374;28;20391;-73
2023/01/05 01:21:37;;;;;;;0.40;0.30;;;10.70;99.90;;;;;;4990476;28;20780;-73
2023/01/05 01:24:03;;;;;;;0.60;0.40;;;10.70;99.90;;;;;;4989998;28;20486;-73
2023/01/05 01:26:28;;;;;;;0.60;0.40;;;10.60;99.90;;;;;;4990721;28;20382;-74
2023/01/05 01:28:54;;;;;;;0.60;0.30;;;10.70;99.90;;;;;;4990712;28;20383;-74
2023/01/05 01:31:19;;;;;;;0.50;0.40;;;10.60;99.90;;;;;;4990621;28;20497;-73
2023/01/05 01:33:45;;;;;;;0.40;0.30;;;10.70;99.90;;;;;;4989494;28;20440;-74
2023/01/05 01:36:10;;;;;;;0.60;0.30;;;10.70;99.90;;;;;;4991835;28;20401;-74
2023/01/05 01:38:36;;;;;;;0.50;0.30;;;10.70;99.90;;;;;;4994159;28;20430;-73
2023/01/05 01:41:02;;;;;;;0.52;0.40;;;10.80;99.90;;;;;;4994092;28;20390;-74
2023/01/05 01:43:51;;;;;;;1.10;0.30;;;10.80;99.90;;;;;;4993145;28;20943;-74
2023/01/05 01:46:18;;;;;;;0.50;0.40;;;10.80;99.90;;;;;;4994136;28;20395;-74
2023/01/05 01:49:00;;;;;;;0.50;0.32;;;10.80;99.90;;;;;;4994216;28;20387;-74
2023/01/05 01:51:42;;;;;;;0.43;0.30;;;10.80;99.90;;;;;;4976271;28;20382;-72
2023/01/05 01:54:11;;;;;;;0.60;0.30;;;10.80;99.90;;;;;;4993083;28;20478;-73
2023/01/05 01:56:54;;;;;;;0.40;0.30;;;10.80;99.90;;;;;;4993860;28;20409;-74
2023/01/05 01:59:21;;;;;;;0.50;0.30;;;10.80;99.90;;;;;;4992598;28;20404;-73
2023/01/05 02:01:49;;;;;;;0.40;0.20;;;10.90;99.90;;;;;;4993631;28;20390;-73
2023/01/05 02:04:15;;;;;;;0.40;0.30;;;10.80;99.90;;;;;;4992854;28;20417;-72
2023/01/05 02:06:40;;;;;;;0.50;0.40;;;10.90;99.90;;;;;;4993847;28;20398;-72
2023/01/05 02:09:06;;;;;;;0.50;0.30;;;10.90;99.90;;;;;;4993590;28;20398;-73
2023/01/05 02:11:57;;;;;;;0.40;0.30;;;10.90;99.90;;;;;;4993521;28;20418;-73
2023/01/05 02:14:31;;;;;;;0.50;0.30;;;10.90;99.90;;;;;;4992762;28;20382;-73
2023/01/05 02:17:18;;;;;;;0.43;0.30;;;10.90;99.90;;;;;;4993563;28;20379;-72
2023/01/05 02:20:21;;;;;;;0.50;0.30;;;10.90;99.90;;;;;;4993078;28;20484;-72
2023/01/05 02:23:09;;;;;;;0.40;0.30;;;10.90;99.90;;;;;;4991930;28;20461;-72
2023/01/05 02:26:05;;;;;;;0.60;0.30;;;10.90;99.90;;;;;;4992822;28;20421;-72
2023/01/05 02:28:48;;;;;;;0.40;0.30;;;10.80;99.90;;;;;;4993245;28;20387;-72
2023/01/05 02:31:19;;;;;;;0.80;0.30;;;10.90;99.90;;;;;;4992973;28;20493;-72
2023/01/05 02:33:53;;;;;;;0.40;0.30;;;10.90;99.90;;;;;;4992658;28;20911;-72
2023/01/05 02:36:22;;;;;;;0.50;0.40;;;10.90;99.90;;;;;;4993187;28;20753;-72
2023/01/05 02:39:05;;;;;;;0.50;0.30;;;11.00;99.90;;;;;;4992878;28;20485;-72
2023/01/05 02:42:00;;;;;;;0.47;0.30;;;11.00;99.90;;;;;;4992809;28;20762;-72
2023/01/05 02:44:31;;;;;;;0.40;0.30;;;11.00;99.90;;;;;;4991649;28;20426;-72
2023/01/05 02:47:20;;;;;;;0.77;0.30;;;11.00;99.90;;;;;;4992732;28;20395;-72
2023/01/05 02:49:46;;;;;;;0.40;0.30;;;11.00;99.90;;;;;;4992744;28;20391;-71
2023/01/05 02:52:12;;;;;;;0.60;0.40;;;11.00;99.90;;;;;;4992858;28;20383;-72
2023/01/05 02:54:44;;;;;;;0.40;0.30;;;11.00;99.90;;;;;;4991703;28;20481;-72
2023/01/05 02:57:19;;;;;;;0.40;0.30;;;11.00;99.90;;;;;;4992417;28;20398;-73
2023/01/05 02:59:49;;;;;;;0.80;0.30;;;11.00;99.90;;;;;;4992574;28;20881;-72
2023/01/05 03:02:21;;;;;;;0.40;0.30;;;10.90;99.90;;;;;;4992565;28;20931;-72
2023/01/05 03:05:03;;;;;;;0.40;0.30;;;11.10;99.90;;;;;;4991335;28;20414;-72
2023/01/05 03:07:38;;;;;;;0.50;0.30;;;11.00;99.90;;;;;;4992527;28;20395;-72
2023/01/05 03:13:40;;;;;;;0.40;0.30;;;11.00;99.90;;;;;;4973112;28;20394;-72
2023/01/05 03:15:39;;;;;;;0.80;0.40;;;11.10;99.90;;;;;;4981233;28;20405;-72
2023/01/05 03:18:12;;;;;;;0.80;0.40;;;11.10;99.90;;;;;;4992422;28;20386;-72
2023/01/05 03:20:42;;;;;;;0.50;0.30;;;11.10;99.90;;;;;;4992110;28;20472;-72
2023/01/05 03:37:54;;;;;;;0.60;0.40;;;11.10;99.90;;;;;;4991986;28;20474;-72
2023/01/05 03:40:25;;;;;;;0.40;0.30;;;11.10;99.90;;;;;;4974446;28;20402;-72
2023/01/05 03:42:51;;;;;;;0.40;0.30;;;11.10;99.90;;;;;;4991265;28;20540;-72
2023/01/05 03:45:18;;;;;;;0.40;0.30;;;11.10;99.90;;;;;;4991636;28;20418;-72
2023/01/05 03:47:43;;;;;;;0.40;0.20;;;11.10;99.90;;;;;;4991810;28;20379;-72
2023/01/05 03:50:09;;;;;;;0.40;0.20;;;11.00;99.90;;;;;;4989968;28;20397;-72
2023/01/05 03:52:34;;;;;;;0.40;0.30;;;11.10;99.90;;;;;;4989831;28;20812;-72
2023/01/05 03:55:00;;;;;;;0.40;0.30;;;11.00;99.90;;;;;;4991415;28;20452;-72
2023/01/05 03:57:25;;;;;;;0.60;0.30;;;11.00;99.90;;;;;;4991739;28;20421;-73
2023/01/05 03:59:51;;;;;;;0.40;0.30;;;11.00;99.90;;;;;;4991123;28;20434;-72
2023/01/05 04:02:17;;;;;;;0.60;0.30;;;11.00;99.90;;;;;;4974101;28;20406;-72
2023/01/05 04:04:42;;;;;;;0.60;0.30;;;11.00;99.90;;;;;;4990578;28;20908;-72
2023/01/05 04:07:08;;;;;;;0.40;0.30;;;11.00;99.90;;;;;;4990134;28;20395;-72
2023/01/05 04:09:33;;;;;;;0.40;0.30;;;11.00;99.90;;;;;;4991259;28;20913;-72
2023/01/05 04:11:59;;;;;;;0.40;0.30;;;11.00;99.90;;;;;;4973997;28;20405;-72
2023/01/05 04:14:25;;;;;;;0.60;0.30;;;11.00;99.90;;;;;;4990828;28;20394;-73
2023/01/05 04:16:50;;;;;;;0.40;0.30;;;11.00;99.90;;;;;;4991580;28;20433;-73
2023/01/05 04:19:16;;;;;;;1.30;0.30;;;11.10;99.90;;;;;;4991405;28;20390;-73
2023/01/05 04:21:42;;;;;;;0.40;0.20;;;11.10;99.90;;;;;;4990953;28;20493;-73
2023/01/05 04:24:10;;;;;;;0.52;0.30;;;11.10;99.90;;;;;;4990476;28;20410;-73
2023/01/05 04:26:36;;;;;;;0.40;0.30;;;11.10;99.90;;;;;;4989911;28;20773;-73
2023/01/05 04:29:03;;;;;;;0.40;0.30;;;11.10;99.90;;;;;;4991031;28;20390;-73
2023/01/05 04:31:29;;;;;;;0.40;0.20;;;11.10;99.90;;;;;;4990976;28;20891;-73
2023/01/05 04:33:55;;;;;;;0.90;0.20;;;11.10;99.90;;;;;;4990610;28;20389;-73
2023/01/05 04:36:20;;;;;;;0.40;0.30;;;11.10;99.90;;;;;;4991360;28;20978;-72
2023/01/05 04:38:46;;;;;;;0.80;0.30;;;11.10;99.90;;;;;;4991024;28;20397;-73
2023/01/05 04:41:12;;;;;;;0.40;0.22;;;11.10;99.90;;;;;;4991243;28;20394;-73
2023/01/05 04:43:38;;;;;;;0.40;0.20;;;11.10;99.90;;;;;;4990471;28;20389;-73
2023/01/05 04:46:04;;;;;;;0.40;0.20;;;11.10;99.90;;;;;;4989875;28;20429;-73
2023/01/05 04:48:30;;;;;;;0.60;0.30;;;11.10;99.90;;;;;;4990997;28;20395;-73
2023/01/05 04:50:56;;;;;;;0.40;0.20;;;11.10;99.90;;;;;;4991156;28;20444;-73
2023/01/05 04:53:23;;;;;;;1.10;0.30;;;11.10;99.90;;;;;;4990658;28;20469;-73
2023/01/05 04:55:49;;;;;;;0.50;0.30;;;11.10;99.90;;;;;;4991262;28;20386;-73
2023/01/05 04:58:15;;;;;;;0.40;0.30;;;11.10;99.90;;;;;;4990868;28;20460;-73
2023/01/05 05:00:41;;;;;;;0.60;0.30;;;11.10;99.90;;;;;;4990810;28;20406;-73
2023/01/05 05:03:06;;;;;;;0.40;0.30;;;11.20;99.90;;;;;;4990326;28;20807;-73
2023/01/05 05:05:32;;;;;;;0.70;0.50;;;11.10;99.90;;;;;;4990964;28;20485;-73
2023/01/05 05:07:57;;;;;;;0.50;0.30;;;11.20;99.90;;;;;;4990724;28;20525;-73
2023/01/05 05:10:23;;;;;;;0.40;0.30;;;11.10;99.90;;;;;;4990958;28;20445;-73
2023/01/05 05:12:48;;;;;;;0.40;0.30;;;11.10;99.90;;;;;;4977051;28;20405;-73
2023/01/05 05:15:14;;;;;;;0.40;0.30;;;11.10;99.90;;;;;;4995008;28;20386;-73
2023/01/05 05:17:39;;;;;;;0.40;0.30;;;11.20;99.90;;;;;;4995022;28;20935;-73
2023/01/05 05:20:06;;;;;;;0.53;0.30;;;11.20;99.90;;;;;;4994458;28;20808;-73
2023/01/05 05:22:31;;;;;;;0.40;0.30;;;11.20;99.90;;;;;;4994105;28;20897;-73
2023/01/05 05:24:57;;;;;;;0.40;0.30;;;11.30;99.90;;;;;;4994488;28;20414;-73
2023/01/05 05:27:22;;;;;;;0.40;0.30;;;11.20;99.90;;;;;;4994624;28;20401;-73
2023/01/05 05:29:48;;;;;;;0.40;0.30;;;11.30;99.90;;;;;;4994359;28;20460;-73
2023/01/05 05:32:13;;;;;;;0.40;0.30;;;11.30;99.90;;;;;;4994125;28;20492;-73
2023/01/05 05:34:39;;;;;;;0.40;0.30;;;11.20;99.90;;;;;;4992683;28;20445;-73
2023/01/05 05:37:04;;;;;;;0.40;0.20;;;11.20;99.90;;;;;;4994436;28;20915;-73
2023/01/05 05:39:30;;;;;;;0.50;0.30;;;11.30;99.90;;;;;;4994750;28;20489;-73
2023/01/05 05:41:55;;;;;;;0.70;0.30;;;11.30;99.90;;;;;;4994103;28;20489;-73
2023/01/05 05:44:21;;;;;;;0.40;0.20;;;11.30;99.90;;;;;;4992763;28;20422;-72
2023/01/05 05:46:46;;;;;;;0.43;0.30;;;11.30;99.90;;;;;;4993958;28;20836;-72
2023/01/05 05:49:12;;;;;;;0.40;0.30;;;11.30;99.90;;;;;;4994188;28;20908;-73
2023/01/05 05:51:37;;;;;;;0.70;0.30;;;11.30;99.90;;;;;;4992822;28;20477;-73
2023/01/05 05:54:03;;;;;;;0.43;0.30;;;11.30;99.90;;;;;;4994258;28;20880;-73
2023/01/05 05:56:29;;;;;;;0.40;0.30;;;11.30;99.90;;;;;;4994115;28;20423;-73
2023/01/05 05:58:54;;;;;;;0.40;0.30;;;11.30;99.90;;;;;;4994328;28;20397;-73
2023/01/05 06:01:20;;;;;;;0.40;0.30;;;11.40;99.90;;;;;;4993925;28;20441;-72
2023/01/05 06:03:45;;;;;;;0.50;0.40;;;11.30;99.90;;;;;;4993333;28;20753;-72
2023/01/05 06:06:11;;;;;;;0.40;0.30;;;11.30;99.90;;;;;;4992465;28;20921;-73
2023/01/05 06:08:36;;;;;;;0.60;0.30;;;11.30;99.90;;;;;;4988175;28;20387;-73
2023/01/05 06:11:02;;;;;;;0.50;0.30;;;11.30;99.90;;;;;;4993881;28;20726;-73
2023/01/05 06:13:27;;;;;;;0.40;0.30;;;11.30;99.90;;;;;;4993299;28;20390;-73
2023/01/05 06:15:53;;;;;;;0.40;0.30;;;11.40;99.90;;;;;;4994205;28;20760;-73
2023/01/05 06:18:18;;;;;;;0.95;0.30;;;11.40;99.90;;;;;;4993878;28;20405;-73
2023/01/05 06:20:45;;;;;;;0.40;0.30;;;11.30;99.90;;;;;;4994196;28;20493;-73
2023/01/05 06:23:10;;;;;;;0.40;0.30;;;11.30;99.90;;;;;;4992714;28;20386;-73
2023/01/05 06:25:36;;;;;;;0.40;0.30;;;11.30;99.90;;;;;;4993747;28;20422;-73
2023/01/05 06:28:02;;;;;;;0.40;0.30;;;11.40;99.90;;;;;;4993675;28;20422;-72
2023/01/05 06:30:28;;;;;;;0.60;0.40;;;11.40;99.90;;;;;;4993471;28;20888;-73
2023/01/05 06:32:53;;;;;;;0.40;0.30;;;11.40;99.90;;;;;;4993242;28;20394;-72
2023/01/05 06:35:19;;;;;;;0.40;0.30;;;11.40;99.90;;;;;;4975944;28;20395;-72
2023/01/05 06:37:45;;;;;;;0.47;0.30;;;11.40;99.90;;;;;;4992902;28;20464;-72
2023/01/05 06:40:11;;;;;;;0.80;0.40;;;11.50;99.90;;;;;;4993411;28;20737;-72
2023/01/05 06:42:37;;;;;;;0.40;0.30;;;11.50;99.90;;;;;;4992577;28;20486;-72
2023/01/05 06:45:04;;;;;;;0.40;0.30;;;11.50;99.90;;;;;;4993133;28;20425;-72
2023/01/05 06:47:29;;;;;;;0.40;0.30;;;11.40;99.90;;;;;;4993064;28;20402;-72
2023/01/05 06:49:55;;;;;;;0.40;0.30;;;11.40;99.90;;;;;;4993025;28;20382;-72
2023/01/05 06:52:20;;;;;;;0.47;0.30;;;11.40;99.90;;;;;;4993129;28;20389;-72
2023/01/05 06:54:46;;;;;;;0.45;0.35;;;11.40;99.90;;;;;;4992278;28;20462;-72
2023/01/05 06:57:11;;;;;;;0.60;0.40;;;11.40;99.90;;;;;;4993134;28;20393;-72
2023/01/05 06:59:37;;;;;;;0.40;0.30;;;11.40;99.90;;;;;;4992694;28;20484;-72
2023/01/05 07:02:03;;;;;;;0.40;0.30;;;11.40;99.90;;;;;;4993081;28;20387;-72
2023/01/05 07:04:28;;;;;;;0.40;0.30;;;11.40;99.90;;;;;;4991971;28;20903;-72
2023/01/05 07:06:54;;;;;;;0.70;0.40;;;11.40;99.90;;;;;;4975510;28;20481;-73
2023/01/05 07:09:19;;;;;;;0.50;0.30;;;11.40;99.90;;;;;;4992237;28;20441;-73
2023/01/05 07:11:45;;;;;;;0.50;0.40;;;11.40;99.90;;;;;;4992663;28;20421;-72
2023/01/05 07:14:10;;;;;;;0.40;0.30;;;11.40;99.90;;;;;;4991952;28;20398;-72
2023/01/05 07:16:36;;;;;;;0.50;0.30;;;11.40;99.90;;;;;;4975354;28;20440;-73
2023/01/05 07:19:01;;;;;;;0.70;0.30;;;11.50;99.90;;;;;;4991944;28;20885;-72
2023/01/05 07:21:26;;;;;;;0.70;0.30;;;11.40;99.90;;;;;;4975060;28;20412;-72
2023/01/05 07:23:52;;;;;;;0.40;0.30;;;11.40;99.90;;;;;;4991825;28;20394;-72
2023/01/05 07:26:17;;;;;;;0.60;0.40;;;11.50;99.90;;;;;;4992590;28;20749;-72
2023/01/05 07:28:43;;;;;;;2.30;0.50;;;11.50;99.90;;;;;;4992396;28;20394;-72
2023/01/05 07:31:09;;;;;;;0.40;0.30;;;11.50;99.90;;;;;;4992173;28;20395;-72
2023/01/05 07:33:35;;;;;;;0.40;0.30;;;11.50;99.90;;;;;;4990620;28;20403;-72
2023/01/05 07:36:02;;;;;;;1.30;0.50;;;11.60;99.90;;;;;;4992276;28;20853;-72
2023/01/05 07:38:28;;;;;;;0.50;0.50;;;11.60;99.90;;;;;;4991955;28;20402;-71
2023/01/05 07:40:57;;;;;;;0.40;0.40;;;11.50;99.90;;;;;;4992238;28;20453;-72
2023/01/05 07:43:23;;;;;;;0.40;0.30;;;11.60;99.90;;;;;;4991322;28;20393;-72
2023/01/05 07:45:48;;;;;;;0.40;0.30;;;11.60;99.90;;;;;;4991991;28;20406;-72
2023/01/05 07:48:14;;;;;;;0.50;0.38;;;11.60;99.90;;;;;;4991697;28;20911;-72
2023/01/05 07:50:39;;;;;;;0.50;0.40;;;11.60;99.90;;;;;;4991858;28;20398;-72
2023/01/05 07:53:05;;;;;;;0.70;0.50;;;11.60;99.90;;;;;;4991248;28;20386;-71
2023/01/05 07:55:30;;;;;;;0.50;0.40;;;11.60;99.90;;;;;;4991823;28;20895;-72
2023/01/05 07:57:56;;;;;;;0.50;0.40;;;11.60;99.90;;;;;;4991662;28;20820;-72
2023/01/05 08:00:22;;;;;;;0.60;0.40;;;11.60;99.90;;;;;;4991799;28;20395;-72
2023/01/05 08:02:47;;;;;;;0.50;0.40;;;11.70;99.90;;;;;;4990989;28;20482;-72
2023/01/05 08:05:13;;;;;;;0.50;0.40;;;11.70;99.90;;;;;;4991634;28;20900;-72
2023/01/05 08:07:38;;;;;;;0.40;0.30;;;11.60;99.90;;;;;;4991627;28;20413;-73
2023/01/05 08:15:32;;;;;;;0.50;0.40;;;11.70;99.90;;;;;;4991533;28;20808;-72
2023/01/05 08:17:58;;;;;;;0.70;0.40;;;11.70;99.90;;;;;;4991600;28;20394;-72
2023/01/05 08:20:23;;;;;;;0.40;0.30;;;11.70;99.90;;;;;;4991333;28;20982;-71
2023/01/05 08:22:50;;;;;;;0.50;0.40;;;11.70;99.90;;;;;;4990501;28;20489;-72
2023/01/05 08:25:16;;;;;;;0.50;0.40;;;11.70;99.90;;;;;;4991305;28;21070;-72
2023/01/05 08:27:41;;;;;;;0.40;0.30;;;11.70;99.90;;;;;;4991299;28;20402;-73
2023/01/05 08:30:07;;;;;;;0.50;0.50;;;11.70;99.90;;;;;;4990991;28;20434;-72
2023/01/05 08:32:33;;;;;;;0.50;0.40;;;11.70;99.90;;;;;;4990697;28;20513;-72
2023/01/05 08:34:58;;;;;;;0.60;0.40;;;11.70;99.90;;;;;;4991309;28;20858;-72
2023/01/05 08:37:24;;;;;;;0.80;0.60;;;11.70;99.90;;;;;;4985722;28;20452;-72
2023/01/05 08:39:49;;;;;;;0.60;0.50;;;11.80;99.90;;;;;;4991233;28;20489;-72
2023/01/05 08:42:15;;;;;;;0.60;0.40;;;11.70;99.90;;;;;;4991331;28;20417;-72
2023/01/05 08:44:40;;;;;;;1.10;0.40;;;11.70;99.90;;;;;;4972957;28;20769;-73
2023/01/05 08:47:06;;;;;;;1.05;0.63;;;11.70;99.90;;;;;;4990916;28;20390;-73
2023/01/05 08:49:31;;;;;;;0.60;0.40;;;11.80;99.90;;;;;;4991186;28;20397;-73
2023/01/05 08:51:57;;;;;;;0.90;0.40;;;11.70;99.90;;;;;;4991231;28;20383;-73
2023/01/05 08:54:22;;;;;;;0.60;0.40;;;11.80;99.90;;;;;;4990398;28;20477;-73
2023/01/05 08:56:49;;;;;;;0.60;0.45;;;11.70;99.90;;;;;;4991151;28;20752;-73
2023/01/05 08:59:15;;;;;;;1.30;0.38;;;11.80;99.90;;;;;;4991231;28;20418;-73
2023/01/05 09:01:40;;;;;;;0.60;0.50;;;11.70;99.90;;;;;;4991119;28;20441;-73
2023/01/05 09:04:07;;;;;;;1.00;0.50;;;11.60;99.90;;;;;;4990318;28;20391;-71
2023/01/05 09:06:33;;;;;;;1.00;0.70;;;11.50;99.90;;;;;;4991040;28;20382;-71
2023/01/05 09:08:58;;;;;;;0.70;0.40;;;11.50;99.90;;;;;;4991023;28;20453;-71
2023/01/05 09:11:24;;;;;;;0.50;0.40;;;11.50;99.90;;;;;;4990854;28;20417;-71
2023/01/05 09:13:55;;;;;;;0.60;0.60;;;11.60;99.90;;;;;;4989871;28;20394;-71
2023/01/05 09:16:23;;;;;;;0.70;0.60;;;11.70;99.90;;;;;;4990509;28;20920;-72
2023/01/05 09:18:49;;;;;;;1.70;0.60;;;11.70;99.90;;;;;;4990991;28;20406;-72
2023/01/05 09:21:15;;;;;;;0.70;0.53;;;11.80;99.90;;;;;;4973411;28;20402;-72
2023/01/05 09:23:41;;;;;;;1.20;0.60;;;11.90;99.90;;;;;;4990250;28;20464;-72
2023/01/05 09:26:12;;;;;;;1.00;0.70;;;11.90;99.90;;;;;;4991169;28;20417;-72
2023/01/05 09:28:38;;;;;;;2.00;0.60;;;12.00;99.90;;;;;;4990983;28;20382;-72
2023/01/05 09:31:11;;;;;;;0.65;0.40;;;12.00;99.90;;;;;;4989461;28;20402;-72
2023/01/05 09:33:38;;;;;;;0.77;0.45;;;12.10;99.90;;;;;;4989785;28;20889;-72
2023/01/05 09:36:04;;;;;;;0.75;0.50;;;12.20;99.90;;;;;;4971394;28;20754;-71
2023/01/05 09:38:30;;;;;;;0.80;0.63;;;12.30;99.90;;;;;;4971309;28;20905;-73
2023/01/05 09:41:01;;;;;;;0.70;0.70;;;12.30;99.90;;;;;;4971121;28;20400;-74
2023/01/05 09:43:33;;;;;;;1.98;0.80;;;12.40;99.90;;;;;;4970674;28;20450;-72
2023/01/05 09:46:17;;;;;;;1.40;0.80;;;12.30;99.90;;;;;;4989487;28;20445;-72
2023/01/05 09:48:50;;;;;;;2.20;0.70;;;12.50;99.90;;;;;;4990907;28;20436;-71
2023/01/05 09:51:16;;;;;;;2.45;0.70;;;12.60;99.90;;;;;;4988383;28;20525;-71
2023/01/05 09:53:41;;;;;;;2.10;1.00;;;12.80;99.90;;;;;;4988781;28;20823;-71
2023/01/05 09:56:17;;;;;;;1.20;0.70;;;13.00;99.90;;;;;;4989929;28;20433;-72
2023/01/05 09:58:44;;;;;;;1.00;0.70;;;13.10;99.90;;;;;;4994226;28;20885;-72
2023/01/05 10:01:16;;;;;;;1.00;0.60;;;13.00;82.60;;;;;;4992764;28;20400;-72
2023/01/05 10:03:52;;;;;;;1.77;0.70;;;13.10;72.00;;;;;;4993342;28;20390;-73
2023/01/05 10:06:20;;;;;;;5.37;0.93;;;13.10;1.00;;;;;;4993645;28;20512;-73
2023/01/05 10:08:50;;;;;;;2.92;0.77;;;13.10;3.20;;;;;;4994023;28;20394;-73
2023/01/05 10:14:29;;;;;;;1.58;0.70;;;13.20;13.10;;;;;;4993584;28;20468;-73
2023/01/05 10:16:55;;;;;;;1.10;0.60;;;13.20;1.00;;;;;;4976230;28;20456;-73
2023/01/05 10:19:20;;;;;;;1.35;0.80;;;13.20;1.00;;;;;;4993789;28;20386;-73
2023/01/05 10:21:57;;;;;;;1.15;0.85;;;13.30;1.00;;;;;;4993256;28;20420;-72
2023/01/05 10:24:50;;;;;;;0.95;0.60;;;13.30;1.00;;;;;;4992729;28;20411;-72
2023/01/05 10:27:43;;;;;;;4.70;0.90;;;13.40;1.00;;;;;;4993475;28;20398;-72
2023/01/05 10:30:13;;;;;;;3.35;0.70;;;13.30;1.00;;;;;;4993528;28;20421;-72
2023/01/05 10:33:01;;;;;;;6.10;3.30;;;13.30;1.00;;;;;;4992675;28;20440;-72
2023/01/05 10:35:51;;;;;;;2.72;1.30;;;13.40;1.00;;;;;;4993457;28;20382;-72
2023/01/05 10:38:36;;;;;;;2.95;0.70;;;13.40;1.00;;;;;;4993090;28;20487;-72
2023/01/05 10:41:28;;;;;;;1.30;1.00;;;13.40;1.00;;;;;;4992935;28;20468;-73
2023/01/05 10:44:26;;;;;;;1.42;0.85;;;13.40;1.00;;;;;;4974258;28;20398;-73
2023/01/05 10:46:52;;;;;;;1.00;0.50;;;13.20;1.00;;;;;;4993141;28;20387;-73
2023/01/05 10:49:24;;;;;;;0.87;0.60;;;13.10;1.00;;;;;;4993118;28;20406;-73
2023/01/05 10:51:51;;;;;;;1.30;0.60;;;13.00;1.00;;;;;;4992693;28;20396;-73
2023/01/05 10:54:41;;;;;;;2.00;0.50;;;13.00;1.00;;;;;;4992523;28;20385;-72
2023/01/05 10:57:32;;;;;;;1.50;0.68;;;13.00;1.00;;;;;;4991747;28;20391;-73
2023/01/05 11:00:02;;;;;;;1.33;0.60;;;13.00;1.00;;;;;;4992320;28;20395;-73
2023/01/05 11:02:32;;;;;;;0.90;0.60;;;13.00;1.00;;;;;;4992285;28;20379;-73
2023/01/05 11:05:06;;;;;;;1.95;0.70;;;13.20;1.00;;;;;;4992843;28;20409;-73
2023/01/05 11:07:44;;;;;;;1.98;0.90;;;13.00;1.00;;;;;;4992734;28;20398;-73
2023/01/05 11:10:29;;;;;;;1.98;0.60;;;13.10;1.00;;;;;;4959252;28;20484;-73
2023/01/05 11:13:03;;;;;;;1.50;0.80;;;13.10;1.00;;;;;;4991911;28;20402;-73
2023/01/05 11:15:41;;;;;;;2.20;0.65;;;13.00;28.00;;;;;;4992740;28;20859;-73
2023/01/05 11:18:18;;;;;;;0.80;0.60;;;13.00;48.10;;;;;;4992015;28;20402;-73
2023/01/05 11:21:06;;;;;;;0.70;0.50;;;12.90;95.40;;;;;;4992251;28;20422;-72
2023/01/05 11:23:43;;;;;;;0.93;0.52;;;12.90;99.90;;;;;;4991818;28;20394;-72
2023/01/05 11:26:18;;;;;;;1.17;0.77;;;12.80;99.90;;;;;;4992315;28;20418;-72
2023/01/05 11:29:08;;;;;;;1.50;0.60;;;12.90;99.90;;;;;;4976045;28;20501;-72
2023/01/05 11:31:41;;;;;;;0.80;0.50;;;12.90;99.90;;;;;;4992251;28;20895;-72
2023/01/05 11:34:21;;;;;;;0.60;0.50;;;12.80;99.90;;;;;;4974185;28;20477;-72
2023/01/05 11:36:56;;;;;;;0.67;0.40;;;12.80;99.90;;;;;;4991959;28;20892;-72
2023/01/05 11:39:55;;;;;;;1.00;0.50;;;12.90;99.90;;;;;;4991909;28;20850;-71
2023/01/05 11:42:24;;;;;;;0.90;0.40;;;13.00;99.90;;;;;;4986564;28;20403;-72
2023/01/05 11:45:04;;;;;;;0.60;0.38;;;13.00;99.90;;;;;;4991667;28;20415;-71
2023/01/05 11:47:39;;;;;;;1.80;0.50;;;13.00;99.90;;;;;;4992055;28;20772;-72
2023/01/05 11:50:23;;;;;;;0.57;0.50;;;12.90;99.90;;;;;;4978203;28;20394;-72
2023/01/05 11:52:52;;;;;;;0.75;0.50;;;13.00;99.90;;;;;;4991220;28;20877;-72
2023/01/05 11:55:32;;;;;;;0.50;0.43;;;13.10;99.90;;;;;;4991741;28;20422;-71
2023/01/05 11:58:14;;;;;;;0.60;0.35;;;13.20;99.90;;;;;;4991706;28;20387;-73
2023/01/05 12:00:52;;;;;;;0.70;0.40;;;13.20;99.90;;;;;;4991705;28;20775;-72
2023/01/05 12:03:49;;;;;;;1.20;0.40;;;13.30;99.90;;;;;;4991001;28;20463;-73
2023/01/05 12:06:32;;;;;;;0.60;0.40;;;13.30;99.30;;;;;;4991502;28;20900;-73
2023/01/05 12:09:15;;;;;;;0.50;0.40;;;13.30;99.90;;;;;;4991573;28;20886;-73
2023/01/05 12:11:51;;;;;;;1.20;0.40;;;13.60;41.50;;;;;;4991548;28;20901;-73
2023/01/05 12:14:36;;;;;;;1.00;0.30;;;13.70;1.00;;;;;;4990882;28;20492;-73
2023/01/05 12:17:15;;;;;;;0.65;0.50;;;13.60;3.40;;;;;;4991395;28;20761;-73
2023/01/05 12:20:06;;;;;;;0.70;0.50;;;13.60;5.70;;;;;;4989660;28;20399;-73
2023/01/05 12:22:55;;;;;;;0.50;0.40;;;13.90;1.00;;;;;;4990636;28;20494;-73
2023/01/05 12:25:36;;;;;;;0.40;0.40;;;14.00;1.00;;;;;;4973594;28;20422;-72
2023/01/05 12:28:30;;;;;;;0.50;0.40;;;13.80;1.00;;;;;;4991280;28;20379;-73
2023/01/05 12:31:17;;;;;;;0.47;0.40;;;13.60;11.70;;;;;;4991322;28;20386;-73
2023/01/05 12:34:13;;;;;;;0.50;0.40;;;13.60;1.00;;;;;;4990239;28;20406;-73
2023/01/05 12:36:47;;;;;;;0.80;0.40;;;13.70;1.00;;;;;;4991214;28;20877;-73
2023/01/05 12:39:38;;;;;;;0.50;0.32;;;13.70;1.00;;;;;;4990083;28;20395;-73
2023/01/05 12:42:20;;;;;;;0.57;0.40;;;13.40;51.80;;;;;;4989865;28;20398;-73
2023/01/05 12:45:19;;;;;;;0.50;0.40;;;13.30;71.60;;;;;;4976452;28;20861;-73
2023/01/05 12:47:59;;;;;;;0.50;0.40;;;13.30;91.30;;;;;;4973575;28;20426;-73
2023/01/05 12:50:34;;;;;;;0.70;0.50;;;13.30;89.40;;;;;;4991385;28;20386;-73
2023/01/05 12:53:28;;;;;;;0.40;0.30;;;13.30;99.90;;;;;;4990488;28;20485;-73
2023/01/05 12:55:57;;;;;;;0.50;0.35;;;13.20;99.90;;;;;;4968777;28;20507;-73
2023/01/05 12:58:35;;;;;;;0.50;0.30;;;13.20;99.90;;;;;;4971593;28;20424;-73
2023/01/05 13:01:05;;;;;;;0.40;0.30;;;13.30;92.70;;;;;;4981137;28;20485;-73
2023/01/05 13:03:44;;;;;;;0.60;0.40;;;13.50;28.10;;;;;;4990204;28;20398;-73
2023/01/05 13:06:22;;;;;;;0.50;0.40;;;13.50;27.40;;;;;;4989775;28;20418;-73
2023/01/05 13:08:56;;;;;;;0.70;0.50;;;13.60;1.00;;;;;;4983297;28;20422;-73
2023/01/05 13:11:30;;;;;;;0.50;0.40;;;13.50;1.00;;;;;;5010372;23;20480;-72
2023/01/05 13:14:09;;;;;;;0.45;0.40;;;13.30;11.70;;;;;;5009854;28;20381;-72
2023/01/05 13:16:44;;;;;;;0.60;0.40;;;13.40;30.50;;;;;;5010376;28;20459;-71
2023/01/05 13:19:43;;;;;;;0.90;0.50;;;13.40;31.20;;;;;;5010690;28;20376;-73
2023/01/05 13:22:24;;;;;;;0.60;0.50;;;13.40;6.20;;;;;;4991045;28;20378;-72
2023/01/05 13:24:59;;;;;;;0.60;0.50;;;13.40;26.00;;;;;;4990490;28;20407;-72
2023/01/05 13:27:27;;;;;;;0.50;0.50;;;13.40;38.60;;;;;;4990363;28;20406;-73
2023/01/05 13:29:58;;;;;;;0.60;0.40;;;13.50;18.50;;;;;;4990783;28;20389;-73
2023/01/05 13:32:35;;;;;;;0.70;0.60;;;13.50;13.80;;;;;;4974905;28;20394;-72
2023/01/05 13:35:16;;;;;;;0.52;0.43;;;13.50;25.10;;;;;;4994677;28;20391;-73
2023/01/05 13:38:01;;;;;;;0.75;0.50;;;13.50;39.70;;;;;;4994167;28;20841;-73
2023/01/05 13:41:04;;;;;;;0.95;0.50;;;13.40;81.30;;;;;;4994465;28;20379;-72
2023/01/05 13:44:01;;;;;;;1.00;0.60;;;13.70;42.80;;;;;;4992345;28;20452;-73
2023/01/05 13:46:42;;;;;;;0.55;0.50;;;13.70;18.40;;;;;;4994295;28;20407;-71